createdAt,value
2022-08-27T00:05:07.017Z,87.9
2022-08-27T00:10:57.683Z,87.6
2022-08-27T00:18:00.878Z,88.6
2022-08-27T00:23:50.112Z,88.9
2022-08-27T00:29:43.984Z,89.1
2022-08-27T00:35:37.121Z,88.6
2022-08-27T00:41:30.599Z,90
2022-08-27T00:47:22.077Z,89.7
2022-08-27T00:53:16.461Z,88.5
2022-08-27T00:59:08.009Z,90.4
2022-08-27T01:05:00.498Z,91.1
2022-08-27T01:11:09.141Z,89.8
2022-08-27T01:16:59.111Z,90.7
2022-08-27T01:22:52.492Z,90.7
2022-08-27T01:28:45.080Z,91.1
2022-08-27T01:34:38.414Z,91.1
2022-08-27T01:40:29.614Z,90.4
2022-08-27T01:46:22.470Z,91.4
2022-08-27T01:52:14.218Z,90.7
2022-08-27T01:58:07.034Z,92.5
2022-08-27T02:04:04.635Z,93.8
2022-08-27T02:09:57.353Z,95
2022-08-27T02:15:49.295Z,95
2022-08-27T02:21:40.656Z,94.9
2022-08-27T02:27:33.636Z,95
2022-08-27T02:33:26.544Z,95.4
2022-08-27T02:39:17.077Z,95.6
2022-08-27T02:45:10.995Z,94.8
2022-08-27T02:51:08.909Z,94.5
2022-08-27T02:57:06.060Z,96.9
2022-08-27T03:02:57.660Z,97.9
2022-08-27T03:08:55.138Z,99.7
2022-08-27T03:14:45.868Z,100
2022-08-27T03:20:36.326Z,100
2022-08-27T03:26:29.757Z,99.9
2022-08-27T03:32:20.758Z,98.9
2022-08-27T03:38:12.471Z,99.2
2022-08-27T03:44:03.216Z,99.7
2022-08-27T03:49:55.318Z,99.5
2022-08-27T03:55:46.833Z,100
2022-08-27T04:01:40.459Z,100
2022-08-27T04:07:32.912Z,100
2022-08-27T04:13:26.252Z,100
2022-08-27T04:19:18.803Z,100
2022-08-27T04:25:14.794Z,100
2022-08-27T04:31:18.585Z,100
2022-08-27T04:37:25.268Z,99.4
2022-08-27T04:43:19.053Z,99.1
2022-08-27T04:49:12.043Z,98.6
2022-08-27T04:55:07.081Z,98.1
2022-08-27T05:01:00.204Z,98
2022-08-27T05:06:57.650Z,97.4
2022-08-27T05:12:48.308Z,97.6
2022-08-27T05:18:54.281Z,96.9
2022-08-27T05:24:45.046Z,98.8
2022-08-27T05:30:40.819Z,97.3
2022-08-27T05:36:50.686Z,96.9
2022-08-27T05:42:43.075Z,96.9
2022-08-27T05:48:42.733Z,96.4
2022-08-27T05:54:34.351Z,95.5
2022-08-27T06:00:27.924Z,95.3
2022-08-27T06:06:19.174Z,94.8
2022-08-27T06:12:12.623Z,95.4
2022-08-27T06:18:03.677Z,95.7
2022-08-27T06:23:54.531Z,95.9
2022-08-27T06:29:46.114Z,97.7
2022-08-27T06:35:37.002Z,97.5
2022-08-27T06:41:28.182Z,98
2022-08-27T06:47:22.810Z,97.1
2022-08-27T06:53:13.462Z,97.5
2022-08-27T06:59:13.853Z,98.6
2022-08-27T07:05:04.496Z,98.2
2022-08-27T07:10:56.799Z,100
2022-08-27T07:16:49.793Z,100
2022-08-27T07:22:42.737Z,100
2022-08-27T07:28:35.162Z,100
2022-08-27T07:34:27.150Z,100
2022-08-27T07:40:18.621Z,100
2022-08-27T07:46:09.879Z,100
2022-08-27T07:52:02.466Z,100
2022-08-27T07:57:53.624Z,100
2022-08-27T08:03:45.268Z,100
2022-08-27T08:09:37.310Z,100
2022-08-27T08:15:28.332Z,100
2022-08-27T08:21:19.986Z,100
2022-08-27T08:27:12.044Z,98
2022-08-27T08:33:03.208Z,98.1
2022-08-27T08:38:54.282Z,98.4
2022-08-27T08:44:45.787Z,96.3
2022-08-27T08:50:36.864Z,97.9
2022-08-27T08:56:28.295Z,96
2022-08-27T09:02:19.416Z,97
2022-08-27T09:08:44.001Z,97.3
2022-08-27T09:14:34.231Z,96.7
2022-08-27T09:20:27.007Z,95.2
2022-08-27T09:26:18.967Z,95.4
2022-08-27T09:32:09.827Z,95.7
2022-08-27T09:38:00.244Z,94.6
2022-08-27T09:43:51.567Z,94.4
2022-08-27T09:49:42.410Z,95.8
2022-08-27T09:55:36.019Z,95.1
2022-08-27T10:01:29.889Z,94.6
2022-08-27T10:07:22.603Z,95.1
2022-08-27T10:13:13.166Z,94.9
2022-08-27T10:19:05.216Z,94.6
2022-08-27T10:24:56.598Z,92.2
2022-08-27T10:30:47.915Z,93.8
2022-08-27T10:36:39.817Z,95.8
2022-08-27T10:42:32.488Z,93.5
2022-08-27T10:48:23.417Z,94.3
2022-08-27T10:54:15.287Z,94.6
2022-08-27T11:00:08.464Z,93.5
2022-08-27T11:06:00.337Z,93.1
2022-08-27T11:12:15.872Z,94
2022-08-27T11:18:05.767Z,93.7
2022-08-27T11:23:57.938Z,94.4
2022-08-27T11:29:49.115Z,93.1
2022-08-27T11:35:47.626Z,92.6
2022-08-27T11:41:46.940Z,92.4
2022-08-27T11:47:40.534Z,91.4
2022-08-27T11:53:31.649Z,91.6
2022-08-27T11:59:38.625Z,90.7
2022-08-27T12:05:30.776Z,89.7
2022-08-27T12:11:23.700Z,89.3
2022-08-27T12:17:14.636Z,89.3
2022-08-27T12:23:07.333Z,88.7
2022-08-27T12:28:59.440Z,88
2022-08-27T12:34:51.437Z,87.8
2022-08-27T12:40:48.530Z,87.1
2022-08-27T12:46:38.013Z,86.8
2022-08-27T12:52:27.894Z,87
2022-08-27T12:58:17.914Z,85.7
2022-08-27T13:04:07.611Z,86.3
2022-08-27T13:09:58.945Z,83.8
2022-08-27T13:15:49.958Z,83.4
2022-08-27T13:21:40.920Z,82.1
2022-08-27T13:27:31.015Z,81.8
2022-08-27T13:33:20.577Z,80.9
2022-08-27T13:39:09.873Z,81.3
2022-08-27T13:44:59.434Z,80.2
2022-08-27T13:50:53.004Z,79.7
2022-08-27T13:56:45.213Z,79.9
2022-08-27T14:02:38.184Z,79.5
2022-08-27T14:08:43.320Z,78.5
2022-08-27T14:14:34.842Z,77.2
2022-08-27T14:20:25.951Z,77.4
2022-08-27T14:26:17.625Z,76.9
2022-08-27T14:32:10.860Z,75.9
2022-08-27T14:38:02.886Z,75.8
2022-08-27T14:43:54.435Z,75.2
2022-08-27T14:49:47.639Z,74.3
2022-08-27T14:55:39.623Z,74.7
2022-08-27T15:01:39.047Z,75.3
2022-08-27T15:07:31.601Z,74.5
2022-08-27T15:13:24.294Z,74
2022-08-27T15:19:15.620Z,73.9
2022-08-27T15:25:08.087Z,73.6
2022-08-27T15:30:59.707Z,73.6
2022-08-27T15:36:51.498Z,73.9
2022-08-27T15:42:43.007Z,73.7
2022-08-27T15:48:35.386Z,73.7
2022-08-27T15:54:26.919Z,73
2022-08-27T16:00:18.202Z,73.6
2022-08-27T16:06:09.257Z,73.4
2022-08-27T16:12:06.468Z,72.8
2022-08-27T16:18:12.803Z,72.4
2022-08-27T16:24:05.368Z,72
2022-08-27T16:29:58.413Z,72.1
2022-08-27T16:35:52.580Z,71.9
2022-08-27T16:41:43.803Z,72.1
2022-08-27T16:47:36.106Z,71.6
2022-08-27T16:53:29.382Z,71.3
2022-08-27T16:59:20.864Z,71.9
2022-08-27T17:05:36.236Z,72.5
2022-08-27T17:11:26.877Z,72.9
2022-08-27T17:17:19.211Z,72.5
2022-08-27T17:23:10.580Z,72.6
2022-08-27T17:29:01.922Z,72.1
2022-08-27T17:34:53.190Z,72.1
2022-08-27T17:40:46.914Z,71.8
2022-08-27T17:46:42.858Z,71.6
2022-08-27T17:52:34.366Z,71.8
2022-08-27T17:58:26.423Z,71.4
2022-08-27T18:04:17.965Z,71.3
2022-08-27T18:10:08.283Z,71.4
2022-08-27T18:15:59.778Z,71.3
2022-08-27T18:21:51.748Z,71.2
2022-08-27T18:27:42.384Z,71.2
2022-08-27T18:33:33.619Z,71.4
2022-08-27T18:39:27.464Z,71.6
2022-08-27T18:45:21.694Z,71.7
2022-08-27T18:51:15.681Z,72.1
2022-08-27T18:57:07.048Z,72.6
2022-08-27T19:02:59.702Z,72.6
2022-08-27T19:08:52.159Z,72.8
2022-08-27T19:14:49.254Z,73.2
2022-08-27T19:20:39.642Z,73.2
2022-08-27T19:26:30.728Z,73.2
2022-08-27T19:32:22.955Z,73.6
2022-08-27T19:38:14.137Z,74
2022-08-27T19:44:05.380Z,74.4
2022-08-27T19:49:57.098Z,74.3
2022-08-27T19:55:48.238Z,74.1
2022-08-27T20:01:39.924Z,74
2022-08-27T20:07:36.671Z,73.6
2022-08-27T20:13:34.692Z,74.7
2022-08-27T20:19:40.252Z,74.3
2022-08-27T20:25:31.189Z,74.9
2022-08-27T20:31:21.452Z,74.8
2022-08-27T20:37:12.583Z,75.2
2022-08-27T20:43:05.885Z,75
2022-08-27T20:48:56.608Z,75.3
2022-08-27T20:54:48.030Z,75.7
2022-08-27T21:00:40.116Z,75.2
2022-08-27T21:06:35.002Z,75.5
2022-08-27T21:12:25.769Z,75.2
2022-08-27T21:18:17.005Z,75.4
2022-08-27T21:24:17.133Z,75.3
2022-08-27T21:30:09.045Z,75.2
2022-08-27T21:36:01.838Z,75
2022-08-27T21:42:01.050Z,75.2
2022-08-27T21:47:54.652Z,75.2
2022-08-27T21:53:46.192Z,75.7
2022-08-27T21:59:38.168Z,76.7
2022-08-27T22:05:31.360Z,76.3
2022-08-27T22:11:26.124Z,76.2
2022-08-27T22:17:22.547Z,75.5
2022-08-27T22:23:13.874Z,75.6
2022-08-27T22:29:09.850Z,75.8
2022-08-27T22:35:06.397Z,75.6
2022-08-27T22:41:02.851Z,76.2
2022-08-27T22:46:53.827Z,76.5
2022-08-27T22:52:45.294Z,76.4
2022-08-27T22:58:38.705Z,77.1
2022-08-27T23:04:56.313Z,77.2
2022-08-27T23:10:51.770Z,76.6
2022-08-27T23:16:44.881Z,77.6
2022-08-27T23:22:41.644Z,77.9
2022-08-27T23:28:32.597Z,77.5
2022-08-27T23:34:24.433Z,77.6
2022-08-27T23:40:18.200Z,77.5
2022-08-27T23:46:13.335Z,77.9
2022-08-27T23:52:04.940Z,77.9
2022-08-27T23:57:57.288Z,77.6
